Nuiqsut Airport Nuiqsut US
ICAO: PAQT
IATA:
Category: Medium
Scheduled Services:

Elevation: 38 ft
TransAlt. 0 ft.

Airport Communications:
ANCHORAGE CNTR:119.4
ASOS:122.5
CTAF:122.8
DEADHORSE RDO:122.5

PAQT Zoom In..

If Map Doesn't Load, Click Here

Runways:

(A) RW 05 length 4589 ft width 100 ft
---- / hdg 49

(B) RW 23 length 4589 ft width 100 ft
---- / hdg 229

Location; PAQT
Day. 26 / Time. 09.53 Zulu
* Altimeter: 30.31
* Temperature: -06° c. -21.2°f.
* Wind from: 100° Speed 03 kn.
Dewpoint: -06° c.
Visibility: 10 Statute Miles.
Clouds: Clear (automated report).

PAQT 260953Z AUTO 10003KT 10SM CLR M06/M06 A3031 RMK AO2 SLP263 I1000 T10561056 TSNO


Wind From 100°
Speed 03 kn.

 
 
jpsmedia.com for Web Design worldairports.se 2018   terms of use